首页
METAR-TAF:

METAR-TAF

机场 :

巴拿馬城, 巴拿马

纬度: 08-59N, 经度: 079-31W, 海拔: 13米

当前天气观测

该预报发布于1小时和24分钟前的19:00 UTC
风速8节,风向,在东南南转西南之间变化
温度 30°C
湿度 79%
气压 1009 hPa
能见度10公里或以上
散云层高于1600英尺, 塔状积云.

METAR: MPMG 241900Z 17008KT 140V200 9999 SCT016TCU 30/26 Q1009 NOSIG

时间: 15:24 (20:24 UTC)

预报

该预报发布于3小时和4分钟前的17:20 UTC
预报有效从24日的 18点(UTC)到 25日的 06点(UTC)
风速8节,风向
能见度10公里或以上
散云层高于1800英尺
散云层高于9000英尺
几率 30%
从 24日的 19点(UTC)到 24日的 23点(UTC)
能見度: 6000
散云层高于1400英尺, 积雨云.
多云层高于8000英尺
雷暴, 雨
短暂存在
从 25日的 01点(UTC)到 25日的 05点(UTC)
风速2节,风向多变

TAF: MPMG 241720Z 2418/2506 18008KT 9999 SCT018 SCT090 PROB30 2419/2423 6000 TSRA SCT014CB BKN080 TEMPO 2501/2505 VRB02KT

超过4000个机场的气象观测和天气预报(METAR&TAF报告)。

可查询的气象台以黄色和红色小点在地图上表示。

将鼠标移到小点上方,可查看气象台名称。

然后点击查看天气观测和预报。

如需切换地图:点击带黑十字的绿色按钮放大地图;点击带横线的绿色按钮缩小地图;或者点击绿色箭头查看邻近地区的地图。


METAR-TAF: